BAW101 EGKK-EDDF
Flight info
| Callsign | BAW101 |
|---|---|
| Flight time | N/A |
| Altitude | 37000 |
| Route | MIMF1M MIMFO Y312 DVR UL9 KONAN UL607 SPI T180 NIVNU T847 IMCOM IMCO2C |
| Aircraft | B38M/M-ICAO/S |
Departure
| Time | 2026-04-15 10:19 |
|---|---|
| Airport | London Gatwick Airport (EGKK) |
Arrival
| Time | N/A |
|---|---|
| Airport | Frankfurt Main Airport (EDDF) |
| Time | Latitude | Longitude | Altitude | Speed | Heading |
|---|---|---|---|---|---|
| 2026-04-15 09:49 | 51.15576 | -0.16905 | 206 ft | 0 kts | 167° |
| 2026-04-15 10:02 | 51.15577 | -0.16906 | 214 ft | 0 kts | 174° |
| 2026-04-15 10:03 | 51.15586 | -0.16908 | 211 ft | 3 kts | 174° |
| 2026-04-15 10:03 | 51.15605 | -0.16910 | 206 ft | 3 kts | 174° |
| 2026-04-15 10:03 | 51.15623 | -0.16913 | 208 ft | 3 kts | 174° |
| 2026-04-15 10:03 | 51.15641 | -0.16916 | 209 ft | 3 kts | 200° |
| 2026-04-15 10:04 | 51.15654 | -0.16898 | 216 ft | 2 kts | 259° |
| 2026-04-15 10:04 | 51.15654 | -0.16896 | 216 ft | 0 kts | 259° |
| 2026-04-15 10:10 | 51.15654 | -0.16901 | 216 ft | 2 kts | 259° |
| 2026-04-15 10:10 | 51.15653 | -0.16905 | 216 ft | 0 kts | 259° |
| 2026-04-15 10:12 | 51.15652 | -0.16928 | 208 ft | 3 kts | 268° |
| 2026-04-15 10:12 | 51.15651 | -0.16979 | 214 ft | 6 kts | 263° |
| 2026-04-15 10:12 | 51.15643 | -0.17059 | 208 ft | 8 kts | 259° |
| 2026-04-15 10:12 | 51.15628 | -0.17162 | 212 ft | 11 kts | 257° |
| 2026-04-15 10:13 | 51.15616 | -0.17237 | 214 ft | 5 kts | 255° |
| 2026-04-15 10:13 | 51.15606 | -0.17305 | 207 ft | 8 kts | 256° |
| 2026-04-15 10:13 | 51.15589 | -0.17399 | 216 ft | 10 kts | 250° |
| 2026-04-15 10:13 | 51.15533 | -0.17439 | 212 ft | 10 kts | 173° |
| 2026-04-15 10:14 | 51.15459 | -0.17412 | 206 ft | 12 kts | 167° |
| 2026-04-15 10:14 | 51.15374 | -0.17381 | 215 ft | 13 kts | 168° |
| 2026-04-15 10:14 | 51.15305 | -0.17357 | 216 ft | 10 kts | 168° |
| 2026-04-15 10:14 | 51.15246 | -0.17306 | 217 ft | 10 kts | 120° |
| 2026-04-15 10:15 | 51.15252 | -0.17198 | 208 ft | 10 kts | 78° |
| 2026-04-15 10:15 | 51.15266 | -0.17102 | 210 ft | 9 kts | 77° |
| 2026-04-15 10:15 | 51.15272 | -0.17046 | 206 ft | 0 kts | 79° |
| 2026-04-15 10:15 | 51.15273 | -0.17033 | 209 ft | 3 kts | 79° |
| 2026-04-15 10:16 | 51.15279 | -0.16988 | 211 ft | 6 kts | 79° |
| 2026-04-15 10:16 | 51.15290 | -0.16920 | 217 ft | 8 kts | 75° |
| 2026-04-15 10:16 | 51.15281 | -0.16849 | 214 ft | 7 kts | 131° |
| 2026-04-15 10:16 | 51.15234 | -0.16815 | 215 ft | 8 kts | 167° |
| 2026-04-15 10:17 | 51.15176 | -0.16796 | 213 ft | 9 kts | 168° |
| 2026-04-15 10:17 | 51.15126 | -0.16813 | 214 ft | 7 kts | 224° |
| 2026-04-15 10:17 | 51.15112 | -0.16892 | 216 ft | 8 kts | 259° |
| 2026-04-15 10:17 | 51.15099 | -0.16982 | 213 ft | 10 kts | 256° |
| 2026-04-15 10:18 | 51.15067 | -0.17216 | 211 ft | 34 kts | 258° |
| 2026-04-15 10:18 | 51.14973 | -0.17857 | 217 ft | 89 kts | 254° |
| 2026-04-15 10:18 | 51.14767 | -0.18991 | 283 ft | 118 kts | 245° |
| 2026-04-15 10:18 | 51.14429 | -0.20273 | 462 ft | 135 kts | 241° |
| 2026-04-15 10:19 | 51.14324 | -0.21843 | 699 ft | 152 kts | 263° |
| 2026-04-15 10:19 | 51.14169 | -0.23459 | 1119 ft | 146 kts | 255° |
| 2026-04-15 10:19 | 51.13965 | -0.25061 | 1439 ft | 149 kts | 252° |
| 2026-04-15 10:19 | 51.13742 | -0.26668 | 1850 ft | 149 kts | 252° |
| 2026-04-15 10:20 | 51.13793 | -0.28419 | 2038 ft | 173 kts | 283° |
| 2026-04-15 10:20 | 51.14418 | -0.30168 | 2204 ft | 189 kts | 296° |
| 2026-04-15 10:20 | 51.15158 | -0.31970 | 2368 ft | 200 kts | 297° |
| 2026-04-15 10:20 | 51.15931 | -0.33902 | 2596 ft | 216 kts | 297° |
| 2026-04-15 10:21 | 51.16926 | -0.35786 | 3163 ft | 234 kts | 324° |
| 2026-04-15 10:21 | 51.18529 | -0.36416 | 3819 ft | 251 kts | 4° |
| 2026-04-15 10:21 | 51.20154 | -0.35386 | 4070 ft | 262 kts | 43° |
| 2026-04-15 10:21 | 51.21120 | -0.33039 | 4117 ft | 252 kts | 78° |
| 2026-04-15 10:22 | 51.21630 | -0.30375 | 4083 ft | 246 kts | 92° |
| 2026-04-15 10:22 | 51.21326 | -0.27774 | 4093 ft | 238 kts | 116° |
| 2026-04-15 10:22 | 51.20803 | -0.25290 | 4090 ft | 236 kts | 111° |
| 2026-04-15 10:22 | 51.20465 | -0.22698 | 4093 ft | 241 kts | 102° |
| 2026-04-15 10:23 | 51.20473 | -0.19982 | 4084 ft | 252 kts | 86° |
| 2026-04-15 10:23 | 51.20861 | -0.17084 | 4084 ft | 276 kts | 79° |
| 2026-04-15 10:23 | 51.21334 | -0.14114 | 4137 ft | 277 kts | 81° |
| 2026-04-15 10:23 | 51.21725 | -0.11102 | 4575 ft | 279 kts | 83° |
| 2026-04-15 10:24 | 51.22086 | -0.08016 | 5037 ft | 284 kts | 84° |
| 2026-04-15 10:24 | 51.22468 | -0.04931 | 5079 ft | 283 kts | 83° |
| 2026-04-15 10:24 | 51.22862 | -0.01855 | 5085 ft | 283 kts | 83° |
| 2026-04-15 10:24 | 51.23249 | 0.01209 | 4937 ft | 281 kts | 83° |
| 2026-04-15 10:25 | 51.23629 | 0.04270 | 4912 ft | 281 kts | 83° |
| 2026-04-15 10:25 | 51.24008 | 0.07333 | 4909 ft | 282 kts | 83° |
| 2026-04-15 10:25 | 51.24392 | 0.10425 | 5252 ft | 284 kts | 83° |
| 2026-04-15 10:25 | 51.24776 | 0.13520 | 6053 ft | 286 kts | 83° |
| 2026-04-15 10:26 | 51.25163 | 0.16656 | 6764 ft | 290 kts | 83° |
| 2026-04-15 10:26 | 51.25475 | 0.19843 | 7421 ft | 290 kts | 96° |
| 2026-04-15 10:26 | 51.25295 | 0.23034 | 8094 ft | 290 kts | 102° |
| 2026-04-15 10:26 | 51.25035 | 0.26249 | 8785 ft | 294 kts | 103° |
| 2026-04-15 10:27 | 51.24774 | 0.29516 | 9468 ft | 299 kts | 103° |
| 2026-04-15 10:27 | 51.24524 | 0.32849 | 10062 ft | 306 kts | 102° |
| 2026-04-15 10:27 | 51.24266 | 0.36283 | 10511 ft | 318 kts | 102° |
| 2026-04-15 10:27 | 51.23990 | 0.39876 | 10899 ft | 332 kts | 102° |
| 2026-04-15 10:28 | 51.23704 | 0.43595 | 11402 ft | 342 kts | 102° |
| 2026-04-15 10:28 | 51.23413 | 0.47399 | 11972 ft | 348 kts | 102° |
| 2026-04-15 10:28 | 51.23115 | 0.51262 | 12532 ft | 355 kts | 101° |
| 2026-04-15 10:28 | 51.22811 | 0.55192 | 12693 ft | 357 kts | 101° |
| 2026-04-15 10:29 | 51.22508 | 0.59115 | 12725 ft | 356 kts | 101° |
| 2026-04-15 10:29 | 51.22202 | 0.63038 | 12756 ft | 356 kts | 101° |
| 2026-04-15 10:29 | 51.21893 | 0.66959 | 12940 ft | 358 kts | 101° |
| 2026-04-15 10:29 | 51.21581 | 0.70907 | 13624 ft | 361 kts | 101° |
| 2026-04-15 10:30 | 51.21265 | 0.74903 | 14259 ft | 365 kts | 101° |
| 2026-04-15 10:30 | 51.20944 | 0.78942 | 14893 ft | 368 kts | 101° |
| 2026-04-15 10:30 | 51.20619 | 0.83011 | 15506 ft | 372 kts | 101° |
| 2026-04-15 10:30 | 51.20290 | 0.87116 | 16131 ft | 375 kts | 101° |
| 2026-04-15 10:31 | 51.19956 | 0.91260 | 16739 ft | 378 kts | 101° |
| 2026-04-15 10:31 | 51.19621 | 0.95390 | 17357 ft | 382 kts | 101° |
| 2026-04-15 10:31 | 51.19278 | 0.99605 | 17931 ft | 385 kts | 101° |
| 2026-04-15 10:31 | 51.18932 | 1.03844 | 18465 ft | 388 kts | 101° |
| 2026-04-15 10:32 | 51.18580 | 1.08140 | 18960 ft | 392 kts | 101° |
| 2026-04-15 10:32 | 51.18223 | 1.12471 | 19427 ft | 395 kts | 101° |
| 2026-04-15 10:32 | 51.17862 | 1.16829 | 19897 ft | 398 kts | 101° |
| 2026-04-15 10:32 | 51.17497 | 1.21212 | 20363 ft | 401 kts | 101° |
| 2026-04-15 10:33 | 51.17128 | 1.25634 | 20817 ft | 404 kts | 101° |
| 2026-04-15 10:33 | 51.16754 | 1.30081 | 21259 ft | 407 kts | 101° |
| 2026-04-15 10:33 | 51.16375 | 1.34568 | 21734 ft | 410 kts | 101° |
| 2026-04-15 10:33 | 51.16106 | 1.39116 | 22181 ft | 414 kts | 98° |
| 2026-04-15 10:34 | 51.15896 | 1.43699 | 22617 ft | 417 kts | 97° |
| 2026-04-15 10:34 | 51.15676 | 1.48325 | 23067 ft | 420 kts | 97° |
| 2026-04-15 10:34 | 51.15448 | 1.52985 | 23510 ft | 423 kts | 97° |
| 2026-04-15 10:34 | 51.15219 | 1.57661 | 23896 ft | 426 kts | 97° |
| 2026-04-15 10:35 | 51.14989 | 1.62378 | 24249 ft | 428 kts | 97° |
| 2026-04-15 10:35 | 51.14756 | 1.67121 | 24599 ft | 431 kts | 97° |
| 2026-04-15 10:35 | 51.14517 | 1.71902 | 24944 ft | 434 kts | 98° |
| 2026-04-15 10:35 | 51.14275 | 1.76699 | 25285 ft | 436 kts | 98° |
| 2026-04-15 10:36 | 51.14034 | 1.81470 | 25615 ft | 439 kts | 98° |
| 2026-04-15 10:36 | 51.13786 | 1.86324 | 25954 ft | 441 kts | 98° |
| 2026-04-15 10:36 | 51.13535 | 1.91201 | 26283 ft | 443 kts | 97° |
| 2026-04-15 10:36 | 51.13280 | 1.96107 | 26614 ft | 446 kts | 97° |
| 2026-04-15 10:37 | 51.13022 | 2.01043 | 26958 ft | 448 kts | 97° |
| 2026-04-15 10:37 | 51.12760 | 2.06008 | 27269 ft | 451 kts | 97° |
| 2026-04-15 10:37 | 51.12494 | 2.10987 | 27581 ft | 453 kts | 97° |
| 2026-04-15 10:37 | 51.12225 | 2.15998 | 27904 ft | 455 kts | 97° |
| 2026-04-15 10:38 | 51.11953 | 2.21033 | 28214 ft | 458 kts | 97° |
| 2026-04-15 10:38 | 51.11677 | 2.26094 | 28496 ft | 460 kts | 97° |
| 2026-04-15 10:38 | 51.11396 | 2.31190 | 28769 ft | 463 kts | 98° |
| 2026-04-15 10:38 | 51.11113 | 2.36309 | 29032 ft | 465 kts | 98° |
| 2026-04-15 10:39 | 51.10825 | 2.41458 | 29280 ft | 468 kts | 97° |
| 2026-04-15 10:39 | 51.10534 | 2.46624 | 29556 ft | 470 kts | 97° |
| 2026-04-15 10:39 | 51.10239 | 2.51813 | 29818 ft | 472 kts | 97° |
| 2026-04-15 10:39 | 51.09941 | 2.57029 | 30077 ft | 474 kts | 97° |
| 2026-04-15 10:40 | 51.09638 | 2.62273 | 30309 ft | 477 kts | 98° |
| 2026-04-15 10:40 | 51.09074 | 2.67445 | 30528 ft | 475 kts | 108° |
| 2026-04-15 10:40 | 51.08169 | 2.72433 | 30735 ft | 476 kts | 109° |
| 2026-04-15 10:40 | 51.07235 | 2.77501 | 30941 ft | 478 kts | 109° |
| 2026-04-15 10:41 | 51.06313 | 2.82592 | 31146 ft | 481 kts | 108° |
| 2026-04-15 10:41 | 51.05393 | 2.87710 | 31340 ft | 483 kts | 108° |
| 2026-04-15 10:41 | 51.04457 | 2.92849 | 31525 ft | 485 kts | 108° |
| 2026-04-15 10:41 | 51.03510 | 2.97999 | 31731 ft | 487 kts | 108° |
| 2026-04-15 10:42 | 51.02557 | 3.03181 | 31929 ft | 489 kts | 108° |
| 2026-04-15 10:42 | 51.01927 | 3.06622 | 32058 ft | 490 kts | 108° |
| 2026-04-15 10:42 | 51.00969 | 3.11839 | 32255 ft | 492 kts | 108° |
| 2026-04-15 10:42 | 51.00001 | 3.17070 | 32445 ft | 494 kts | 108° |
| 2026-04-15 10:43 | 50.99028 | 3.22312 | 32637 ft | 496 kts | 108° |
| 2026-04-15 10:43 | 50.98049 | 3.27583 | 32826 ft | 498 kts | 108° |
| 2026-04-15 10:43 | 50.97065 | 3.32866 | 32997 ft | 500 kts | 108° |
| 2026-04-15 10:43 | 50.96074 | 3.38173 | 33190 ft | 502 kts | 108° |
| 2026-04-15 10:44 | 50.95081 | 3.43468 | 33478 ft | 502 kts | 108° |
| 2026-04-15 10:44 | 50.94083 | 3.48778 | 33743 ft | 501 kts | 108° |
| 2026-04-15 10:44 | 50.93085 | 3.54073 | 34000 ft | 502 kts | 108° |
| 2026-04-15 10:44 | 50.92084 | 3.59369 | 34256 ft | 502 kts | 108° |
| 2026-04-15 10:45 | 50.91080 | 3.64669 | 34481 ft | 502 kts | 108° |
| 2026-04-15 10:45 | 50.90067 | 3.69961 | 34709 ft | 502 kts | 108° |
| 2026-04-15 10:45 | 50.89057 | 3.75174 | 34935 ft | 502 kts | 108° |
| 2026-04-15 10:45 | 50.88019 | 3.80531 | 35179 ft | 502 kts | 108° |
| 2026-04-15 10:46 | 50.86997 | 3.85823 | 35409 ft | 502 kts | 108° |
| 2026-04-15 10:46 | 50.85973 | 3.91109 | 35629 ft | 502 kts | 108° |
| 2026-04-15 10:46 | 50.84943 | 3.96387 | 35842 ft | 503 kts | 108° |
| 2026-04-15 10:46 | 50.83922 | 4.01609 | 36046 ft | 503 kts | 108° |
| 2026-04-15 10:47 | 50.82886 | 4.06898 | 36246 ft | 503 kts | 108° |
| 2026-04-15 10:47 | 50.81849 | 4.12187 | 36442 ft | 504 kts | 108° |
| 2026-04-15 10:47 | 50.80807 | 4.17477 | 36615 ft | 505 kts | 108° |
| 2026-04-15 10:47 | 50.79758 | 4.22782 | 36770 ft | 505 kts | 108° |
| 2026-04-15 10:48 | 50.78707 | 4.28091 | 36949 ft | 506 kts | 108° |
| 2026-04-15 10:48 | 50.77654 | 4.33401 | 37128 ft | 507 kts | 108° |
| 2026-04-15 10:48 | 50.76603 | 4.38681 | 37161 ft | 500 kts | 108° |
| 2026-04-15 10:48 | 50.75574 | 4.43837 | 37159 ft | 485 kts | 108° |
| 2026-04-15 10:49 | 50.74569 | 4.48856 | 37179 ft | 476 kts | 108° |
| 2026-04-15 10:49 | 50.72551 | 4.58892 | 37178 ft | 481 kts | 108° |
| 2026-04-15 10:50 | 50.70579 | 4.68986 | 37197 ft | 481 kts | 107° |
| 2026-04-15 10:50 | 50.69555 | 4.75748 | 37257 ft | 479 kts | 91° |
| 2026-04-15 10:50 | 50.69363 | 4.80975 | 37265 ft | 480 kts | 103° |
| 2026-04-15 10:51 | 50.68380 | 4.86005 | 37257 ft | 480 kts | 114° |
| 2026-04-15 10:51 | 50.65764 | 4.95573 | 37216 ft | 478 kts | 113° |
| 2026-04-15 10:52 | 50.63243 | 5.05289 | 37213 ft | 480 kts | 110° |
| 2026-04-15 10:52 | 50.61365 | 5.15353 | 36627 ft | 471 kts | 106° |
| 2026-04-15 10:52 | 50.60356 | 5.20333 | 34559 ft | 486 kts | 110° |
| 2026-04-15 10:53 | 50.59216 | 5.25243 | 33522 ft | 470 kts | 110° |
| 2026-04-15 10:53 | 50.58192 | 5.30069 | 32276 ft | 458 kts | 107° |
| 2026-04-15 10:53 | 50.57271 | 5.34803 | 31057 ft | 448 kts | 108° |
| 2026-04-15 10:53 | 50.56330 | 5.39427 | 29807 ft | 439 kts | 109° |
| 2026-04-15 10:54 | 50.55355 | 5.43932 | 28509 ft | 430 kts | 109° |
| 2026-04-15 10:54 | 50.54412 | 5.48331 | 27279 ft | 420 kts | 109° |
| 2026-04-15 10:54 | 50.53515 | 5.52658 | 26102 ft | 411 kts | 109° |
| 2026-04-15 10:54 | 50.52637 | 5.56880 | 25096 ft | 401 kts | 109° |
| 2026-04-15 10:55 | 50.51767 | 5.60979 | 24717 ft | 392 kts | 109° |
| 2026-04-15 10:55 | 50.51048 | 5.65046 | 24703 ft | 385 kts | 106° |
| 2026-04-15 10:55 | 50.50357 | 5.69090 | 24716 ft | 390 kts | 96° |
| 2026-04-15 10:55 | 50.50557 | 5.73355 | 24740 ft | 389 kts | 70° |
| 2026-04-15 10:56 | 50.51829 | 5.77064 | 24740 ft | 387 kts | 53° |
| 2026-04-15 10:56 | 50.52945 | 5.80853 | 24739 ft | 390 kts | 79° |
| 2026-04-15 10:56 | 50.52965 | 5.85089 | 24736 ft | 391 kts | 105° |
| 2026-04-15 10:56 | 50.51877 | 5.88971 | 24738 ft | 388 kts | 126° |
| 2026-04-15 10:57 | 50.50212 | 5.92306 | 24710 ft | 386 kts | 132° |
| 2026-04-15 10:57 | 50.46816 | 5.98847 | 24704 ft | 387 kts | 126° |
| 2026-04-15 10:57 | 50.45386 | 6.02430 | 24710 ft | 388 kts | 117° |
| 2026-04-15 10:58 | 50.44352 | 6.06342 | 24710 ft | 389 kts | 109° |
| 2026-04-15 10:58 | 50.43557 | 6.10412 | 24702 ft | 390 kts | 107° |
| 2026-04-15 10:58 | 50.42748 | 6.14466 | 24713 ft | 390 kts | 110° |
| 2026-04-15 10:58 | 50.41769 | 6.18425 | 24712 ft | 390 kts | 113° |
| 2026-04-15 10:59 | 50.40750 | 6.22305 | 24714 ft | 390 kts | 112° |
| 2026-04-15 10:59 | 50.39777 | 6.26327 | 24715 ft | 390 kts | 110° |
| 2026-04-15 10:59 | 50.38852 | 6.30321 | 24705 ft | 390 kts | 111° |
| 2026-04-15 10:59 | 50.37912 | 6.34242 | 24708 ft | 389 kts | 110° |
| 2026-04-15 11:00 | 50.37100 | 6.38285 | 24703 ft | 390 kts | 107° |
| 2026-04-15 11:00 | 50.36382 | 6.42376 | 24712 ft | 390 kts | 98° |
| 2026-04-15 11:00 | 50.36090 | 6.46602 | 24711 ft | 391 kts | 95° |
| 2026-04-15 11:00 | 50.35846 | 6.50833 | 24708 ft | 387 kts | 95° |
| 2026-04-15 11:01 | 50.35597 | 6.55036 | 24710 ft | 388 kts | 96° |
| 2026-04-15 11:01 | 50.35322 | 6.59248 | 24706 ft | 388 kts | 96° |
| 2026-04-15 11:01 | 50.35046 | 6.63451 | 24711 ft | 388 kts | 96° |
| 2026-04-15 11:01 | 50.34779 | 6.67668 | 24719 ft | 388 kts | 95° |
| 2026-04-15 11:02 | 50.34513 | 6.71872 | 24676 ft | 389 kts | 96° |
| 2026-04-15 11:02 | 50.34238 | 6.76131 | 24234 ft | 396 kts | 96° |
| 2026-04-15 11:02 | 50.33966 | 6.80430 | 23746 ft | 397 kts | 96° |
| 2026-04-15 11:02 | 50.33686 | 6.84726 | 23222 ft | 396 kts | 100° |
| 2026-04-15 11:03 | 50.32863 | 6.88798 | 22758 ft | 392 kts | 115° |
| 2026-04-15 11:03 | 50.31720 | 6.92665 | 22287 ft | 390 kts | 116° |
| 2026-04-15 11:03 | 50.30544 | 6.96478 | 21823 ft | 388 kts | 116° |
| 2026-04-15 11:03 | 50.29399 | 7.00285 | 21365 ft | 386 kts | 115° |
| 2026-04-15 11:04 | 50.28277 | 7.04101 | 20905 ft | 384 kts | 115° |
| 2026-04-15 11:04 | 50.27171 | 7.07836 | 20456 ft | 382 kts | 115° |
| 2026-04-15 11:04 | 50.26044 | 7.11587 | 20005 ft | 380 kts | 116° |
| 2026-04-15 11:04 | 50.24919 | 7.15324 | 19552 ft | 379 kts | 116° |
| 2026-04-15 11:05 | 50.23804 | 7.19046 | 19106 ft | 377 kts | 116° |
| 2026-04-15 11:05 | 50.22694 | 7.22750 | 18662 ft | 375 kts | 116° |
| 2026-04-15 11:05 | 50.21586 | 7.26435 | 18172 ft | 373 kts | 116° |
| 2026-04-15 11:05 | 50.20483 | 7.30092 | 17715 ft | 370 kts | 116° |
| 2026-04-15 11:06 | 50.19438 | 7.33743 | 17289 ft | 367 kts | 111° |
| 2026-04-15 11:06 | 50.18569 | 7.37460 | 16846 ft | 364 kts | 111° |
| 2026-04-15 11:06 | 50.17679 | 7.41143 | 16412 ft | 360 kts | 111° |
| 2026-04-15 11:06 | 50.16799 | 7.44785 | 15988 ft | 358 kts | 112° |
| 2026-04-15 11:07 | 50.15936 | 7.48411 | 15567 ft | 355 kts | 112° |
| 2026-04-15 11:07 | 50.15090 | 7.51969 | 15151 ft | 353 kts | 111° |
| 2026-04-15 11:07 | 50.14232 | 7.55547 | 14737 ft | 351 kts | 111° |
| 2026-04-15 11:07 | 50.13374 | 7.59105 | 14321 ft | 349 kts | 112° |
| 2026-04-15 11:08 | 50.12524 | 7.62639 | 13895 ft | 347 kts | 112° |
| 2026-04-15 11:08 | 50.11680 | 7.66148 | 13467 ft | 344 kts | 112° |
| 2026-04-15 11:08 | 50.10905 | 7.69663 | 13065 ft | 341 kts | 107° |
| 2026-04-15 11:08 | 50.10234 | 7.73198 | 12656 ft | 338 kts | 108° |
| 2026-04-15 11:09 | 50.09529 | 7.76679 | 12256 ft | 335 kts | 109° |
| 2026-04-15 11:09 | 50.08844 | 7.80140 | 11856 ft | 333 kts | 108° |
| 2026-04-15 11:09 | 50.08197 | 7.83598 | 11463 ft | 331 kts | 103° |
| 2026-04-15 11:09 | 50.08188 | 7.87134 | 11251 ft | 325 kts | 77° |
| 2026-04-15 11:10 | 50.08871 | 7.90395 | 11250 ft | 311 kts | 70° |
| 2026-04-15 11:10 | 50.09663 | 7.93531 | 11253 ft | 311 kts | 69° |
| 2026-04-15 11:10 | 50.10457 | 7.96652 | 11250 ft | 310 kts | 69° |
| 2026-04-15 11:10 | 50.11227 | 7.99812 | 11111 ft | 311 kts | 70° |
| 2026-04-15 11:11 | 50.11982 | 8.02951 | 11113 ft | 307 kts | 70° |
| 2026-04-15 11:11 | 50.12746 | 8.06086 | 11242 ft | 311 kts | 69° |
| 2026-04-15 11:11 | 50.13520 | 8.09249 | 11251 ft | 312 kts | 70° |
| 2026-04-15 11:11 | 50.14287 | 8.12398 | 11255 ft | 310 kts | 69° |
| 2026-04-15 11:12 | 50.15049 | 8.15543 | 11227 ft | 308 kts | 70° |
| 2026-04-15 11:12 | 50.15812 | 8.18693 | 11247 ft | 312 kts | 69° |
| 2026-04-15 11:12 | 50.16566 | 8.21802 | 11256 ft | 310 kts | 70° |
| 2026-04-15 11:12 | 50.17328 | 8.24954 | 11245 ft | 311 kts | 70° |
| 2026-04-15 11:13 | 50.18090 | 8.28110 | 11243 ft | 310 kts | 70° |
| 2026-04-15 11:13 | 50.18848 | 8.31252 | 11244 ft | 309 kts | 70° |
| 2026-04-15 11:13 | 50.19599 | 8.34397 | 11245 ft | 309 kts | 73° |
| 2026-04-15 11:13 | 50.19739 | 8.37695 | 11268 ft | 307 kts | 104° |
| 2026-04-15 11:14 | 50.18778 | 8.40612 | 11279 ft | 304 kts | 136° |
| 2026-04-15 11:14 | 50.17007 | 8.42314 | 11279 ft | 301 kts | 165° |
| 2026-04-15 11:14 | 50.14956 | 8.42953 | 11259 ft | 300 kts | 173° |
| 2026-04-15 11:14 | 50.12887 | 8.43221 | 11261 ft | 298 kts | 187° |
| 2026-04-15 11:15 | 50.10968 | 8.42116 | 11273 ft | 297 kts | 219° |
| 2026-04-15 11:15 | 50.09723 | 8.39604 | 11292 ft | 296 kts | 247° |
| 2026-04-15 11:15 | 50.09136 | 8.36529 | 11262 ft | 297 kts | 256° |
| 2026-04-15 11:15 | 50.08657 | 8.33394 | 11254 ft | 298 kts | 253° |
| 2026-04-15 11:16 | 50.08005 | 8.30352 | 11261 ft | 297 kts | 248° |
| 2026-04-15 11:16 | 50.07217 | 8.27383 | 11260 ft | 297 kts | 247° |
| 2026-04-15 11:16 | 50.06453 | 8.24405 | 11259 ft | 297 kts | 249° |
| 2026-04-15 11:16 | 50.05738 | 8.21401 | 11255 ft | 293 kts | 249° |
| 2026-04-15 11:17 | 50.05024 | 8.18406 | 11260 ft | 296 kts | 249° |
| 2026-04-15 11:17 | 50.04293 | 8.15421 | 11260 ft | 294 kts | 249° |
| 2026-04-15 11:17 | 50.03555 | 8.12424 | 11256 ft | 296 kts | 249° |
| 2026-04-15 11:17 | 50.02825 | 8.09442 | 11257 ft | 295 kts | 249° |
| 2026-04-15 11:18 | 50.02105 | 8.06481 | 11256 ft | 296 kts | 249° |
| 2026-04-15 11:18 | 50.01379 | 8.03501 | 11255 ft | 293 kts | 249° |
| 2026-04-15 11:18 | 50.00650 | 8.00521 | 11253 ft | 296 kts | 249° |
| 2026-04-15 11:18 | 49.99919 | 7.97535 | 11250 ft | 295 kts | 249° |
| 2026-04-15 11:19 | 49.99183 | 7.94534 | 11257 ft | 296 kts | 249° |
| 2026-04-15 11:19 | 49.98452 | 7.91556 | 11257 ft | 295 kts | 249° |
| 2026-04-15 11:19 | 49.97718 | 7.88568 | 11253 ft | 295 kts | 249° |
| 2026-04-15 11:19 | 49.96987 | 7.85600 | 11248 ft | 294 kts | 249° |
| 2026-04-15 11:20 | 49.96251 | 7.82616 | 11245 ft | 296 kts | 248° |
| 2026-04-15 11:20 | 49.95511 | 7.79619 | 10910 ft | 301 kts | 248° |
| 2026-04-15 11:20 | 49.94761 | 7.76585 | 10491 ft | 301 kts | 248° |
| 2026-04-15 11:20 | 49.94007 | 7.73544 | 10087 ft | 301 kts | 249° |
| 2026-04-15 11:21 | 49.93060 | 7.70735 | 9999 ft | 286 kts | 226° |
| 2026-04-15 11:21 | 49.91514 | 7.69284 | 10054 ft | 244 kts | 192° |
| 2026-04-15 11:21 | 49.89975 | 7.69597 | 10044 ft | 215 kts | 150° |
| 2026-04-15 11:21 | 49.89114 | 7.71257 | 10022 ft | 200 kts | 105° |
| 2026-04-15 11:22 | 49.89257 | 7.73409 | 10038 ft | 207 kts | 73° |
| 2026-04-15 11:22 | 49.89636 | 7.75503 | 9924 ft | 198 kts | 79° |
| 2026-04-15 11:22 | 49.89788 | 7.77640 | 9752 ft | 197 kts | 93° |
| 2026-04-15 11:22 | 49.89557 | 7.79719 | 9574 ft | 197 kts | 108° |
| 2026-04-15 11:23 | 49.89138 | 7.81727 | 9358 ft | 193 kts | 111° |
| 2026-04-15 11:23 | 49.88725 | 7.83703 | 9159 ft | 193 kts | 109° |
| 2026-04-15 11:23 | 49.88366 | 7.85708 | 8945 ft | 194 kts | 99° |
| 2026-04-15 11:23 | 49.88629 | 7.87738 | 8783 ft | 198 kts | 71° |
| 2026-04-15 11:24 | 49.89119 | 7.89721 | 8517 ft | 194 kts | 70° |
| 2026-04-15 11:24 | 49.89613 | 7.91677 | 8259 ft | 196 kts | 70° |
| 2026-04-15 11:24 | 49.90094 | 7.93623 | 7997 ft | 192 kts | 71° |
| 2026-04-15 11:24 | 49.90554 | 7.95493 | 7738 ft | 181 kts | 71° |
| 2026-04-15 11:25 | 49.90995 | 7.97295 | 7509 ft | 180 kts | 71° |
| 2026-04-15 11:25 | 49.91439 | 7.99099 | 7277 ft | 181 kts | 71° |
| 2026-04-15 11:25 | 49.91879 | 8.00897 | 7041 ft | 177 kts | 71° |
| 2026-04-15 11:25 | 49.92318 | 8.02686 | 6814 ft | 175 kts | 70° |
| 2026-04-15 11:26 | 49.92756 | 8.04477 | 6576 ft | 178 kts | 71° |
| 2026-04-15 11:26 | 49.93187 | 8.06232 | 6345 ft | 175 kts | 72° |
| 2026-04-15 11:26 | 49.93612 | 8.07979 | 6096 ft | 170 kts | 71° |
| 2026-04-15 11:26 | 49.94037 | 8.09722 | 5861 ft | 170 kts | 71° |
| 2026-04-15 11:27 | 49.94456 | 8.11436 | 5654 ft | 169 kts | 72° |
| 2026-04-15 11:27 | 49.94867 | 8.13121 | 5436 ft | 167 kts | 72° |
| 2026-04-15 11:27 | 49.95254 | 8.14698 | 5216 ft | 148 kts | 72° |
| 2026-04-15 11:27 | 49.95619 | 8.16214 | 4989 ft | 144 kts | 71° |
| 2026-04-15 11:28 | 49.95972 | 8.17662 | 4819 ft | 146 kts | 72° |
| 2026-04-15 11:28 | 49.96326 | 8.19119 | 4682 ft | 140 kts | 72° |
| 2026-04-15 11:28 | 49.96666 | 8.20521 | 4682 ft | 138 kts | 73° |
| 2026-04-15 11:28 | 49.96888 | 8.21442 | 4685 ft | 137 kts | 72° |
| 2026-04-15 11:29 | 49.97228 | 8.22836 | 4678 ft | 138 kts | 72° |
| 2026-04-15 11:29 | 49.97565 | 8.24234 | 4675 ft | 138 kts | 71° |
| 2026-04-15 11:29 | 49.97904 | 8.25629 | 4678 ft | 138 kts | 71° |
| 2026-04-15 11:29 | 49.98246 | 8.27049 | 4677 ft | 140 kts | 72° |
| 2026-04-15 11:30 | 49.98589 | 8.28465 | 4681 ft | 140 kts | 71° |
| 2026-04-15 11:30 | 49.98933 | 8.29889 | 4678 ft | 142 kts | 71° |
| 2026-04-15 11:30 | 49.99282 | 8.31335 | 4693 ft | 144 kts | 71° |
| 2026-04-15 11:30 | 49.99632 | 8.32783 | 4676 ft | 143 kts | 71° |
| 2026-04-15 11:31 | 49.99978 | 8.34219 | 4685 ft | 141 kts | 72° |
| 2026-04-15 11:31 | 50.00323 | 8.35649 | 4686 ft | 141 kts | 72° |
| 2026-04-15 11:31 | 50.00660 | 8.37049 | 4471 ft | 133 kts | 71° |
| 2026-04-15 11:31 | 50.01004 | 8.38480 | 3587 ft | 144 kts | 71° |
| 2026-04-15 11:32 | 50.01346 | 8.39911 | 2986 ft | 137 kts | 70° |
| 2026-04-15 11:32 | 50.01683 | 8.41296 | 2893 ft | 141 kts | 70° |
| 2026-04-15 11:32 | 50.02004 | 8.42627 | 2888 ft | 126 kts | 70° |
| 2026-04-15 11:32 | 50.02310 | 8.43903 | 2114 ft | 138 kts | 71° |
| 2026-04-15 11:33 | 50.02633 | 8.45248 | 1860 ft | 124 kts | 71° |
| 2026-04-15 11:33 | 50.02950 | 8.46561 | 1889 ft | 136 kts | 70° |
| 2026-04-15 11:33 | 50.03273 | 8.47903 | 1490 ft | 132 kts | 70° |
| 2026-04-15 11:33 | 50.03601 | 8.49134 | 1458 ft | 104 kts | 60° |
| 2026-04-15 11:34 | 50.03968 | 8.50191 | 579 ft | 126 kts | 81° |